»·PEaware :: N473AA KFLG-KTYL

N473AA :: KFLG-KTYL

FLIGHT INFORMATION

Flight Status: Arrived
Operator: Privately registered:
United States
More flights under this callsign
Pilot: Craig H. (6968)
Aircraft: CESSNA 172 SKYHAWK
(C172)
More flights by this aircraft type
Origin: KFLG Flagstaff Pulliam
United States
Destination: KTYL Taylor Mun
United States
More flights between these airports :: More routes between these airports
Route: +RWY21 DP FLG V291 INW V264 AVANS
File this flight plan on PilotEdge
Remarks:
Altitude:
(Current/Filed)
10,000ft
Speed:
(Current/Filed)
120kts
Departed: 16-Apr-18 12:04 PM
Arrived: 16-Apr-18 01:25 PM
Distance/Time
Traveled:
87nm/1:21
Distance/Time
To Go:
Arrived

Flight Plot

Page will automatically refresh every two minutes.

Flight plan parsing failed; only flown route is shown


Map Options




Map Legend


Flown Route
Filed Route
Departure Airport
Arrival Airport
Navaid (VOR, NDB)
Fix

Horizontal Profiles

Position Reports

Time Latitude Longitude Heading Altitude Ground
Speed
16-Apr-18 11:34 35.135771 -111.677034 222 7014ft 0kts
16-Apr-18 11:35 35.135771 -111.677034 222 7014ft 0kts
16-Apr-18 11:36 35.135771 -111.677034 222 7014ft 0kts
16-Apr-18 11:37 35.135771 -111.677034 222 7014ft 0kts
16-Apr-18 11:38 35.135771 -111.677034 222 7014ft 0kts
16-Apr-18 11:39 35.135771 -111.677034 222 7014ft 0kts
16-Apr-18 11:40 35.135771 -111.677034 222 7014ft 0kts
16-Apr-18 11:41 35.135771 -111.677034 222 7014ft 0kts
16-Apr-18 11:42 35.135771 -111.677034 222 7014ft 0kts
16-Apr-18 11:43 35.135771 -111.677034 222 7014ft 0kts
16-Apr-18 11:44 35.135771 -111.677034 222 7014ft 0kts
16-Apr-18 11:45 35.135771 -111.677034 222 7014ft 0kts
16-Apr-18 11:46 35.135771 -111.677034 222 7014ft 0kts
16-Apr-18 11:47 35.135771 -111.677034 222 7014ft 0kts
16-Apr-18 11:48 35.135771 -111.677034 222 7014ft 0kts
16-Apr-18 11:49 35.135771 -111.677034 222 7014ft 0kts
16-Apr-18 11:50 35.135771 -111.677034 222 7014ft 0kts
16-Apr-18 11:51 35.135771 -111.677034 222 7014ft 0kts
16-Apr-18 11:52 35.135771 -111.677034 222 7014ft 0kts
16-Apr-18 11:53 35.135771 -111.677034 222 7014ft 0kts
16-Apr-18 11:54 35.135771 -111.677034 222 7014ft 0kts
16-Apr-18 11:55 35.135771 -111.677034 222 7014ft 0kts
16-Apr-18 11:56 35.135733 -111.677062 202 7014ft 0kts
16-Apr-18 11:57 35.136919 -111.674624 40 7014ft 20kts
16-Apr-18 11:58 35.141577 -111.669666 42 7014ft 24kts
16-Apr-18 11:59 35.143928 -111.667849 45 7014ft 0kts
16-Apr-18 12:00 35.143928 -111.667849 45 7014ft 0kts
16-Apr-18 12:01 35.146107 -111.664831 42 7014ft 22kts
16-Apr-18 12:02 35.149778 -111.660380 133 7014ft 13kts
16-Apr-18 12:03 35.142560 -111.667049 214 7099ft 54kts
16-Apr-18 12:04 35.129354 -111.665383 153 7375ft 63kts
16-Apr-18 12:05 35.115230 -111.655532 190 7600ft 56kts
16-Apr-18 12:06 35.100113 -111.657980 190 7895ft 55kts
16-Apr-18 12:07 35.084426 -111.660925 190 8154ft 57kts
16-Apr-18 12:08 35.069339 -111.663844 199 8442ft 53kts
16-Apr-18 12:09 35.054981 -111.666851 201 8719ft 51kts
16-Apr-18 12:10 35.040857 -111.669943 199 8953ft 54kts
16-Apr-18 12:11 35.025563 -111.673289 199 9149ft 57kts
16-Apr-18 12:12 35.009678 -111.676773 199 9346ft 57kts
16-Apr-18 12:13 34.994912 -111.680084 191 9566ft 53kts
16-Apr-18 12:14 34.980601 -111.682363 187 9716ft 52kts
16-Apr-18 12:15 34.965858 -111.686562 201 9834ft 56kts
16-Apr-18 12:16 34.952514 -111.686920 111 9995ft 79kts
16-Apr-18 12:17 34.964324 -111.660162 29 10087ft 101kts
16-Apr-18 12:18 34.991324 -111.663150 343 10176ft 101kts
16-Apr-18 12:19 35.020461 -111.667020 339 10288ft 108kts
16-Apr-18 12:20 35.051086 -111.669900 342 10431ft 110kts
16-Apr-18 12:21 35.081065 -111.672140 342 10613ft 106kts
16-Apr-18 12:22 35.109636 -111.674110 340 10793ft 101kts
16-Apr-18 12:23 35.136506 -111.675956 341 10933ft 92kts
16-Apr-18 12:24 35.150353 -111.653894 123 10951ft 83kts
16-Apr-18 12:25 35.145743 -111.625083 117 10979ft 91kts
16-Apr-18 12:26 35.141697 -111.591233 113 10979ft 109kts
16-Apr-18 12:27 35.137768 -111.552418 110 10973ft 119kts
16-Apr-18 12:28 35.133889 -111.511513 110 10974ft 123kts
16-Apr-18 12:29 35.129956 -111.469831 109 10971ft 124kts
16-Apr-18 12:30 35.125999 -111.428035 109 10975ft 124kts
16-Apr-18 12:31 35.122009 -111.385855 109 10974ft 124kts
16-Apr-18 12:32 35.118001 -111.343637 110 10976ft 125kts
16-Apr-18 12:33 35.114018 -111.301868 109 10965ft 123kts
16-Apr-18 12:34 35.110045 -111.260548 110 10972ft 122kts
16-Apr-18 12:35 35.106199 -111.220326 110 11035ft 117kts
16-Apr-18 12:36 35.102324 -111.179732 111 10985ft 122kts
16-Apr-18 12:37 35.098382 -111.139208 113 10981ft 119kts
16-Apr-18 12:38 35.094512 -111.099507 113 10979ft 116kts
16-Apr-18 12:39 35.090687 -111.060427 112 10980ft 116kts
16-Apr-18 12:40 35.086885 -111.021327 113 10981ft 115kts
16-Apr-18 12:41 35.083013 -110.982142 113 10979ft 116kts
16-Apr-18 12:42 35.079196 -110.943264 113 10978ft 115kts
16-Apr-18 12:43 35.075360 -110.904461 113 10981ft 115kts
16-Apr-18 12:44 35.071520 -110.865667 112 10985ft 115kts
16-Apr-18 12:45 35.067633 -110.826548 112 10981ft 115kts
16-Apr-18 12:46 35.061961 -110.789148 130 10980ft 105kts
16-Apr-18 12:47 35.050225 -110.756789 132 10982ft 104kts
16-Apr-18 12:48 35.038217 -110.724592 132 10981ft 105kts
16-Apr-18 12:49 35.026106 -110.692242 131 10984ft 104kts
16-Apr-18 12:50 35.014065 -110.660197 131 10987ft 103kts
16-Apr-18 12:51 34.999503 -110.631351 142 10980ft 98kts
16-Apr-18 12:52 34.983815 -110.604340 143 10982ft 97kts
16-Apr-18 12:53 34.971151 -110.574015 123 10982ft 108kts
16-Apr-18 12:54 34.961876 -110.539393 126 10980ft 107kts
16-Apr-18 12:55 34.951889 -110.505099 127 10980ft 107kts
16-Apr-18 12:56 34.940567 -110.467867 124 10662ft 128kts
16-Apr-18 12:57 34.921132 -110.434638 144 10235ft 113kts
16-Apr-18 12:58 34.901469 -110.406572 146 9808ft 109kts
16-Apr-18 12:59 34.880957 -110.378745 148 9444ft 113kts
16-Apr-18 13:00 34.859532 -110.350566 146 9086ft 114kts
16-Apr-18 13:01 34.839332 -110.322440 147 8882ft 101kts
16-Apr-18 13:02 34.822356 -110.298727 150 8879ft 86kts
16-Apr-18 13:03 34.807049 -110.277438 150 8884ft 84kts
16-Apr-18 13:04 34.790878 -110.255007 149 8642ft 91kts
16-Apr-18 13:05 34.774123 -110.231545 149 8482ft 86kts
16-Apr-18 13:06 34.759682 -110.211352 155 8478ft 73kts
16-Apr-18 13:07 34.745341 -110.191471 150 8556ft 79kts
16-Apr-18 13:08 34.729551 -110.169539 147 8568ft 92kts
16-Apr-18 13:09 34.711980 -110.145080 147 8567ft 98kts
16-Apr-18 13:10 34.693816 -110.119807 145 8568ft 100kts
16-Apr-18 13:11 34.675347 -110.094165 146 8560ft 100kts
16-Apr-18 13:12 34.656977 -110.068704 146 8566ft 100kts
16-Apr-18 13:13 34.638628 -110.043246 144 8562ft 100kts
16-Apr-18 13:14 34.619764 -110.018718 169 8519ft 92kts
16-Apr-18 13:15 34.601381 -110.029031 207 8426ft 77kts
16-Apr-18 13:16 34.580488 -110.036489 203 8098ft 79kts
16-Apr-18 13:17 34.558740 -110.042149 199 8059ft 82kts
16-Apr-18 13:18 34.536010 -110.049733 208 7799ft 91kts
16-Apr-18 13:19 34.514591 -110.061193 213 7299ft 68kts
16-Apr-18 13:20 34.500431 -110.069433 212 6918ft 53kts
16-Apr-18 13:21 34.487089 -110.078764 220 6498ft 56kts
16-Apr-18 13:22 34.476435 -110.090035 224 6134ft 48kts
16-Apr-18 13:23 34.465808 -110.101112 222 5877ft 49kts
16-Apr-18 13:24 34.456969 -110.110534 221 5731ft 16kts
16-Apr-18 13:25 34.455623 -110.111244 143 5735ft 0kts
16-Apr-18 13:26 34.455842 -110.109845 253 5727ft 2kts
16-Apr-18 13:27 34.455729 -110.110131 192 5729ft 0kts
16-Apr-18 13:28 34.455729 -110.110132 192 5729ft 0kts
16-Apr-18 13:29 34.455729 -110.110131 192 5729ft 0kts
16-Apr-18 13:30 34.455729 -110.110131 192 5729ft 0kts
16-Apr-18 13:31 34.455729 -110.110131 192 5729ft 0kts
16-Apr-18 13:32 34.455729 -110.110131 192 5729ft 0kts
16-Apr-18 13:33 34.455729 -110.110131 192 5729ft 0kts
16-Apr-18 13:34 34.455729 -110.110131 192 5729ft 0kts
16-Apr-18 13:35 34.455729 -110.110131 192 5729ft 0kts
16-Apr-18 13:36 34.455729 -110.110132 192 5729ft 0kts

Navigation Log

Ident Type
Flight plan parsing failed, navigation log unavailable